Time;durP1;ratioP1;P1;durP2;ratioP2;P2;SDS_P1;SDS_P2;PMS_P1;PMS_P2;Temp;Humidity;BMP_temperature;BMP_pressure;BME280_temperature;BME280_humidity;BME280_pressure;Samples;Min_cycle;Max_cycle;Signal;HPM_P1;HPM_P2
2022/05/23 00:01:21;;;;;;;0.53;0.53;;;15.10;99.30;;;;;;5035917;28;20415;-71
2022/05/23 00:03:47;;;;;;;0.47;0.47;;;15.20;99.30;;;;;;5035770;28;20410;-69
2022/05/23 00:06:19;;;;;;;0.30;0.30;;;15.30;99.10;;;;;;5036109;28;20492;-70
2022/05/23 00:08:45;;;;;;;0.30;0.30;;;15.30;99.20;;;;;;5035852;28;20812;-69
2022/05/23 00:11:11;;;;;;;0.30;0.30;;;15.20;99.20;;;;;;5035821;28;20414;-70
2022/05/23 00:13:37;;;;;;;0.30;0.30;;;15.30;99.30;;;;;;5034347;28;20989;-70
2022/05/23 00:16:03;;;;;;;0.30;0.30;;;15.30;99.40;;;;;;5035653;28;20179;-69
2022/05/23 00:18:29;;;;;;;0.30;0.30;;;15.30;99.10;;;;;;5035452;28;20210;-71
2022/05/23 00:20:55;;;;;;;0.30;0.30;;;15.20;99.40;;;;;;5035580;28;20989;-70
2022/05/23 00:23:22;;;;;;;0.30;0.30;;;15.20;99.50;;;;;;5035566;28;20405;-69
2022/05/23 00:25:48;;;;;;;0.50;0.50;;;15.20;99.20;;;;;;5035715;28;20167;-69
2022/05/23 00:28:14;;;;;;;0.30;0.30;;;15.20;99.40;;;;;;5035705;28;20420;-69
2022/05/23 00:30:40;;;;;;;0.30;0.30;;;15.30;99.50;;;;;;5035739;28;20437;-70
2022/05/23 00:35:52;;;;;;;0.37;0.37;;;15.20;99.90;;;;;;5035479;28;20224;-69
2022/05/23 00:38:18;;;;;;;0.30;0.30;;;15.20;99.40;;;;;;5035354;28;20460;-70
2022/05/23 00:43:13;;;;;;;0.30;0.30;;;15.20;99.30;;;;;;5035209;28;20435;-71
2022/05/23 00:43:39;;;;;;;0.30;0.30;;;15.10;99.90;;;;;;5034875;28;20491;-70
2022/05/23 00:46:05;;;;;;;0.50;0.40;;;15.10;99.70;;;;;;5035380;28;20461;-70
2022/05/23 00:48:31;;;;;;;0.30;0.30;;;15.20;99.90;;;;;;5035048;28;20176;-71
2022/05/23 00:51:03;;;;;;;0.30;0.30;;;15.20;99.90;;;;;;5035177;28;20263;-70
2022/05/23 00:53:38;;;;;;;0.40;0.40;;;15.10;99.90;;;;;;5034905;28;20406;-69
2022/05/23 00:56:07;;;;;;;0.30;0.30;;;15.10;99.90;;;;;;5035000;28;20451;-68
2022/05/23 00:58:37;;;;;;;0.30;0.30;;;15.10;99.90;;;;;;5034852;28;20507;-70
2022/05/23 01:01:08;;;;;;;0.40;0.40;;;15.10;99.90;;;;;;5034986;28;20417;-71
2022/05/23 01:03:34;;;;;;;1.63;1.53;;;15.00;99.90;;;;;;5034717;28;20405;-70
2022/05/23 01:05:59;;;;;;;0.30;0.30;;;15.00;99.90;;;;;;5034925;28;20902;-70
2022/05/23 01:08:26;;;;;;;0.30;0.30;;;15.00;99.90;;;;;;5034705;28;20172;-70
2022/05/23 01:10:52;;;;;;;0.30;0.30;;;15.00;99.90;;;;;;5034853;28;20241;-71
2022/05/23 01:13:18;;;;;;;0.40;0.40;;;15.00;99.90;;;;;;5034534;28;20410;-70
2022/05/23 01:15:49;;;;;;;0.47;0.47;;;15.00;99.90;;;;;;5034899;28;20417;-70
2022/05/23 01:18:15;;;;;;;0.30;0.30;;;15.00;99.90;;;;;;5034595;28;20529;-71
2022/05/23 01:20:44;;;;;;;0.63;0.50;;;15.00;99.90;;;;;;5034301;28;20445;-71
2022/05/23 01:23:34;;;;;;;0.30;0.30;;;15.00;99.90;;;;;;5034453;28;20410;-70
2022/05/23 01:25:59;;;;;;;0.30;0.30;;;15.00;99.90;;;;;;5034675;28;20497;-70
2022/05/23 01:28:25;;;;;;;0.37;0.37;;;15.00;99.90;;;;;;5034596;28;20838;-70
2022/05/23 01:30:51;;;;;;;0.40;0.40;;;14.90;99.90;;;;;;5034281;28;20564;-70
2022/05/23 01:33:16;;;;;;;0.30;0.30;;;14.90;99.90;;;;;;5034349;28;20174;-69
2022/05/23 01:35:42;;;;;;;0.30;0.30;;;14.90;99.90;;;;;;5034451;28;20233;-71
2022/05/23 01:38:09;;;;;;;0.57;0.57;;;15.00;99.90;;;;;;5032787;28;20207;-70
2022/05/23 01:40:35;;;;;;;0.40;0.40;;;15.00;99.90;;;;;;5034078;28;20457;-69
2022/05/23 01:43:01;;;;;;;0.30;0.30;;;15.10;99.90;;;;;;5034037;28;20456;-69
2022/05/23 01:45:33;;;;;;;2.00;0.70;;;15.20;99.90;;;;;;5032913;28;20930;-71
2022/05/23 01:47:59;;;;;;;0.70;0.70;;;15.20;99.90;;;;;;5034045;28;20250;-70
2022/05/23 01:50:26;;;;;;;0.30;0.30;;;15.20;99.90;;;;;;5033919;28;20434;-71
2022/05/23 01:52:52;;;;;;;0.30;0.30;;;15.20;99.90;;;;;;5033784;28;20417;-71
2022/05/23 01:55:18;;;;;;;0.30;0.30;;;15.20;99.90;;;;;;5034005;28;20881;-70
2022/05/23 01:57:44;;;;;;;0.30;0.30;;;15.20;99.90;;;;;;5033906;28;20451;-69
2022/05/23 02:02:56;;;;;;;0.40;0.40;;;15.30;99.90;;;;;;5034170;28;20312;-71
2022/05/23 02:05:25;;;;;;;0.30;0.30;;;15.30;99.90;;;;;;5033974;28;20864;-71
2022/05/23 02:07:51;;;;;;;0.30;0.30;;;15.40;99.90;;;;;;5033538;28;20484;-69
2022/05/23 02:10:17;;;;;;;0.50;0.50;;;15.40;99.90;;;;;;5033825;28;20827;-70
2022/05/23 02:12:43;;;;;;;0.60;0.60;;;15.40;99.90;;;;;;5033465;28;20417;-71
2022/05/23 02:15:09;;;;;;;0.30;0.30;;;15.30;99.90;;;;;;5033672;28;20536;-69
2022/05/23 02:17:34;;;;;;;0.30;0.30;;;15.40;99.90;;;;;;5033731;28;20589;-71
2022/05/23 02:20:02;;;;;;;0.30;0.30;;;15.40;99.90;;;;;;5033376;28;20457;-71
2022/05/23 02:22:28;;;;;;;0.30;0.30;;;15.40;99.90;;;;;;5033551;28;20410;-70
2022/05/23 02:24:53;;;;;;;0.30;0.30;;;15.40;99.90;;;;;;5033688;28;20417;-71
2022/05/23 02:27:19;;;;;;;0.60;0.60;;;15.40;99.90;;;;;;5033608;28;20179;-71
2022/05/23 02:29:44;;;;;;;0.30;0.30;;;15.50;99.90;;;;;;5033531;28;20194;-70
2022/05/23 02:32:10;;;;;;;0.30;0.30;;;15.60;99.90;;;;;;5033494;28;20171;-69
2022/05/23 02:34:36;;;;;;;0.30;0.30;;;15.80;99.90;;;;;;5033547;28;20214;-70
2022/05/23 02:37:02;;;;;;;0.40;0.40;;;15.80;99.90;;;;;;5033571;28;20808;-71
2022/05/23 02:39:28;;;;;;;0.30;0.30;;;15.70;99.90;;;;;;5033167;28;20557;-71
2022/05/23 02:41:54;;;;;;;0.40;0.40;;;15.80;99.90;;;;;;5033588;28;20506;-71
2022/05/23 02:44:20;;;;;;;0.30;0.30;;;15.80;99.90;;;;;;5033216;28;20496;-70
2022/05/23 02:46:46;;;;;;;0.30;0.30;;;15.90;99.90;;;;;;5033402;28;20696;-69
2022/05/23 02:49:12;;;;;;;0.30;0.30;;;15.90;99.90;;;;;;5033310;28;20566;-69
2022/05/23 02:51:38;;;;;;;0.30;0.30;;;15.90;99.90;;;;;;5033256;28;20528;-69
2022/05/23 02:54:04;;;;;;;0.30;0.30;;;15.80;99.90;;;;;;5033349;28;20266;-71
2022/05/23 02:56:31;;;;;;;0.40;0.40;;;15.70;99.90;;;;;;5033109;28;20418;-71
2022/05/23 02:58:57;;;;;;;0.30;0.30;;;15.80;99.90;;;;;;5033003;28;20929;-71
2022/05/23 03:01:23;;;;;;;0.30;0.30;;;15.90;99.90;;;;;;5033170;28;20405;-70
2022/05/23 03:03:48;;;;;;;0.30;0.30;;;15.90;99.90;;;;;;5033080;28;20175;-70
2022/05/23 03:06:15;;;;;;;0.30;0.30;;;16.30;99.90;;;;;;5033311;28;20404;-70
2022/05/23 03:08:41;;;;;;;0.30;0.30;;;16.50;99.90;;;;;;5033223;28;20175;-70
2022/05/23 03:11:08;;;;;;;0.40;0.40;;;16.60;99.90;;;;;;5033054;28;20416;-70
2022/05/23 03:13:35;;;;;;;0.30;0.30;;;16.70;99.90;;;;;;5032934;28;20405;-71
2022/05/23 03:16:01;;;;;;;0.30;0.30;;;16.90;99.90;;;;;;5033078;28;20819;-70
2022/05/23 03:18:26;;;;;;;0.30;0.30;;;17.00;99.90;;;;;;5033139;28;20445;-68
2022/05/23 03:20:56;;;;;;;0.50;0.50;;;17.10;99.90;;;;;;5035598;28;20479;-68
2022/05/23 03:28:52;;;;;;;0.30;0.30;;;17.10;99.90;;;;;;5036800;28;20500;-69
2022/05/23 03:31:18;;;;;;;0.30;0.30;;;17.20;99.90;;;;;;5036625;28;20441;-69
2022/05/23 03:33:43;;;;;;;0.30;0.30;;;17.20;99.90;;;;;;5036329;28;20175;-68
2022/05/23 03:36:10;;;;;;;0.30;0.30;;;17.10;99.90;;;;;;5036436;28;20174;-69
2022/05/23 03:38:35;;;;;;;0.30;0.30;;;17.00;99.90;;;;;;5036371;28;20199;-68
2022/05/23 03:41:06;;;;;;;0.60;0.60;;;17.00;99.90;;;;;;5036469;28;20829;-67
2022/05/23 03:43:32;;;;;;;0.30;0.30;;;17.00;99.90;;;;;;5036401;28;20261;-69
2022/05/23 03:46:04;;;;;;;0.70;0.67;;;17.00;99.90;;;;;;5036428;28;20489;-69
2022/05/23 03:48:30;;;;;;;0.30;0.30;;;16.90;99.90;;;;;;5036371;28;20163;-69
2022/05/23 03:50:56;;;;;;;0.30;0.30;;;16.90;99.90;;;;;;5036632;28;20435;-69
2022/05/23 03:53:21;;;;;;;0.30;0.30;;;16.80;99.90;;;;;;5034678;28;20699;-68
2022/05/23 03:55:50;;;;;;;0.30;0.30;;;16.90;99.90;;;;;;5036233;28;20175;-69
2022/05/23 03:58:16;;;;;;;0.30;0.30;;;16.80;99.90;;;;;;5036211;28;20309;-68
2022/05/23 04:00:48;;;;;;;0.87;0.87;;;16.80;99.90;;;;;;5035970;28;20508;-68
2022/05/23 04:03:15;;;;;;;0.40;0.40;;;16.80;99.90;;;;;;5036049;28;20402;-70
2022/05/23 04:05:41;;;;;;;0.70;0.70;;;16.80;99.90;;;;;;5036028;28;20920;-68
2022/05/23 04:08:07;;;;;;;0.30;0.30;;;16.70;99.90;;;;;;5035992;28;20921;-69
2022/05/23 04:10:34;;;;;;;0.30;0.30;;;16.80;99.90;;;;;;5035915;28;20802;-69
2022/05/23 04:13:02;;;;;;;0.30;0.30;;;16.80;99.90;;;;;;5035606;28;20412;-68
2022/05/23 04:15:28;;;;;;;0.30;0.30;;;16.70;99.90;;;;;;5035909;28;20418;-67
2022/05/23 04:17:54;;;;;;;0.30;0.30;;;16.70;99.90;;;;;;5035577;28;20956;-68
2022/05/23 04:20:20;;;;;;;0.30;0.30;;;16.70;99.90;;;;;;5035567;28;20484;-67
2022/05/23 04:22:46;;;;;;;0.30;0.30;;;16.70;99.90;;;;;;5035447;28;20774;-68
2022/05/23 04:25:12;;;;;;;0.30;0.30;;;16.70;99.90;;;;;;5035561;28;20402;-68
2022/05/23 04:27:37;;;;;;;0.30;0.30;;;16.80;99.90;;;;;;5035733;28;20178;-68
2022/05/23 04:30:06;;;;;;;0.50;0.50;;;16.70;99.90;;;;;;5035174;28;20198;-69
2022/05/23 04:35:22;;;;;;;0.30;0.30;;;16.80;99.90;;;;;;5016486;28;20417;-67
2022/05/23 04:37:51;;;;;;;0.57;0.57;;;16.90;99.90;;;;;;5035425;28;20496;-68
2022/05/23 04:40:21;;;;;;;0.30;0.30;;;16.90;99.90;;;;;;5035409;28;20513;-69
2022/05/23 04:42:47;;;;;;;0.70;0.70;;;17.00;99.90;;;;;;5035074;28;20417;-68
2022/05/23 04:45:13;;;;;;;0.30;0.30;;;17.00;99.90;;;;;;5035485;28;20437;-69
2022/05/23 04:50:24;;;;;;;0.30;0.30;;;17.10;99.90;;;;;;5035438;28;20471;-67
2022/05/23 04:52:50;;;;;;;0.30;0.30;;;17.20;99.90;;;;;;5035003;28;20489;-69
2022/05/23 04:55:17;;;;;;;0.30;0.30;;;17.20;99.90;;;;;;5034935;28;20856;-69
2022/05/23 04:57:43;;;;;;;0.30;0.30;;;17.30;99.90;;;;;;5035119;28;20412;-69
2022/05/23 05:00:13;;;;;;;0.40;0.40;;;17.40;99.90;;;;;;5034882;28;20421;-68
2022/05/23 05:02:40;;;;;;;0.30;0.30;;;17.50;99.90;;;;;;5034913;28;20166;-68
2022/05/23 05:05:07;;;;;;;0.40;0.40;;;17.70;99.90;;;;;;5035020;28;20414;-68
2022/05/23 05:07:33;;;;;;;0.30;0.30;;;17.80;99.90;;;;;;5034881;28;20397;-69
2022/05/23 05:09:59;;;;;;;0.30;0.30;;;17.90;99.90;;;;;;5034604;28;20794;-69
2022/05/23 05:12:24;;;;;;;0.30;0.30;;;17.90;99.90;;;;;;5034537;28;20181;-69
2022/05/23 05:14:50;;;;;;;0.30;0.30;;;18.00;99.90;;;;;;5035258;28;20171;-69
2022/05/23 05:17:16;;;;;;;0.30;0.30;;;17.90;99.90;;;;;;5034720;28;20652;-68
2022/05/23 05:19:41;;;;;;;0.30;0.30;;;18.00;99.90;;;;;;5034277;28;20289;-69
2022/05/23 05:22:07;;;;;;;0.30;0.30;;;18.10;99.90;;;;;;5034279;28;20264;-67
2022/05/23 05:24:33;;;;;;;0.40;0.40;;;18.10;99.90;;;;;;5033228;28;20171;-70
2022/05/23 05:27:02;;;;;;;0.50;0.50;;;18.10;99.90;;;;;;5034389;28;20166;-69
2022/05/23 05:29:28;;;;;;;0.60;0.60;;;18.10;99.90;;;;;;5034663;28;20194;-69
2022/05/23 05:32:17;;;;;;;0.53;0.53;;;18.00;99.90;;;;;;5034333;28;20406;-67
2022/05/23 05:34:46;;;;;;;0.30;0.30;;;17.90;99.90;;;;;;5034413;28;20487;-67
2022/05/23 05:37:21;;;;;;;0.30;0.30;;;17.70;99.90;;;;;;5034443;28;20412;-69
2022/05/23 05:39:48;;;;;;;3.10;2.13;;;17.90;99.90;;;;;;5034184;28;20464;-68
2022/05/23 05:42:23;;;;;;;0.50;0.50;;;18.10;99.90;;;;;;5033408;28;20413;-67
2022/05/23 05:45:11;;;;;;;0.40;0.40;;;18.10;99.90;;;;;;5033011;28;20412;-69
2022/05/23 05:47:40;;;;;;;0.30;0.30;;;18.30;99.90;;;;;;5034296;28;20894;-69
2022/05/23 05:50:11;;;;;;;0.30;0.30;;;18.50;99.90;;;;;;5034019;28;20434;-69
2022/05/23 05:52:37;;;;;;;0.60;0.60;;;18.80;99.90;;;;;;5032601;28;20912;-67
2022/05/23 05:55:06;;;;;;;0.40;0.40;;;19.20;99.90;;;;;;5034136;28;20925;-67
2022/05/23 05:57:32;;;;;;;1.03;1.03;;;19.50;99.90;;;;;;5033923;28;20398;-69
2022/05/23 05:59:57;;;;;;;0.30;0.30;;;19.90;99.90;;;;;;5033926;28;20474;-69
2022/05/23 06:02:23;;;;;;;0.30;0.30;;;20.20;99.80;;;;;;5033623;28;20170;-67
2022/05/23 06:04:48;;;;;;;1.27;1.13;;;20.50;99.30;;;;;;5032355;28;20705;-68
2022/05/23 06:12:53;;;;;;;0.50;0.50;;;21.50;96.80;;;;;;5033802;28;20413;-69
2022/05/23 06:15:19;;;;;;;0.50;0.50;;;21.80;96.00;;;;;;5033717;28;20417;-68
2022/05/23 06:17:45;;;;;;;0.40;0.40;;;22.00;95.50;;;;;;5033659;28;20904;-69
2022/05/23 06:20:13;;;;;;;0.40;0.40;;;22.40;95.50;;;;;;5033432;28;20202;-70
2022/05/23 06:22:38;;;;;;;0.77;0.77;;;22.80;95.40;;;;;;5033345;28;20405;-70
2022/05/23 06:25:05;;;;;;;0.30;0.30;;;23.40;95.20;;;;;;5033525;28;20497;-69
2022/05/23 06:27:31;;;;;;;0.30;0.30;;;24.20;93.60;;;;;;5033717;28;20175;-70
2022/05/23 06:29:57;;;;;;;0.90;0.70;;;25.30;92.40;;;;;;5033532;28;20646;-70
2022/05/23 06:32:23;;;;;;;0.40;0.40;;;26.50;90.00;;;;;;5033497;28;20250;-70
2022/05/23 06:34:48;;;;;;;0.30;0.30;;;27.10;83.20;;;;;;5033675;28;20171;-68
2022/05/23 06:37:14;;;;;;;0.60;0.60;;;26.90;80.20;;;;;;5033573;28;20174;-68
2022/05/23 06:39:40;;;;;;;0.30;0.30;;;26.80;78.90;;;;;;5033213;28;20229;-69
2022/05/23 06:42:06;;;;;;;0.67;0.67;;;26.90;78.30;;;;;;5033277;28;20177;-69
2022/05/23 06:44:32;;;;;;;0.60;0.60;;;27.00;76.90;;;;;;5033450;28;20167;-69
2022/05/23 06:46:59;;;;;;;0.30;0.30;;;26.90;77.60;;;;;;5033418;28;20800;-68
2022/05/23 06:49:25;;;;;;;0.30;0.30;;;27.40;76.70;;;;;;5033308;28;21032;-69
2022/05/23 06:51:52;;;;;;;0.40;0.40;;;27.40;73.10;;;;;;5033202;28;20504;-70
2022/05/23 06:54:22;;;;;;;0.40;0.40;;;27.00;73.90;;;;;;5035136;28;20408;-68
2022/05/23 06:56:50;;;;;;;1.27;1.27;;;27.00;75.60;;;;;;5037474;28;20413;-69
2022/05/23 06:59:17;;;;;;;0.30;0.30;;;27.80;71.80;;;;;;5035619;28;20457;-69
2022/05/23 07:01:44;;;;;;;0.30;0.30;;;28.10;72.70;;;;;;5035338;28;20401;-69
2022/05/23 07:04:10;;;;;;;0.30;0.30;;;28.00;70.00;;;;;;5034975;28;20418;-69
2022/05/23 07:12:20;;;;;;;0.30;0.30;;;26.10;73.40;;;;;;5037152;28;20741;-70
2022/05/23 07:14:46;;;;;;;0.57;0.57;;;24.90;76.00;;;;;;5037043;28;20445;-70
2022/05/23 07:17:12;;;;;;;0.40;0.40;;;24.10;80.40;;;;;;5036851;28;20489;-69
2022/05/23 07:19:39;;;;;;;0.30;0.30;;;24.70;83.20;;;;;;5036519;28;20465;-69
2022/05/23 07:22:05;;;;;;;0.70;0.67;;;25.30;79.40;;;;;;5036744;28;20487;-70
2022/05/23 07:24:31;;;;;;;0.30;0.30;;;25.80;77.60;;;;;;5036840;28;20396;-68
2022/05/23 07:26:58;;;;;;;0.30;0.30;;;27.10;74.10;;;;;;5036861;28;20398;-69
2022/05/23 07:29:24;;;;;;;0.40;0.40;;;28.50;73.60;;;;;;5036746;28;20508;-69
2022/05/23 07:31:52;;;;;;;0.50;0.40;;;30.30;67.70;;;;;;5036500;28;20968;-70
2022/05/23 07:34:19;;;;;;;0.90;0.90;;;30.90;60.70;;;;;;5036386;28;20410;-70
2022/05/23 07:36:45;;;;;;;0.40;0.40;;;30.80;59.10;;;;;;5036719;28;20405;-68
2022/05/23 07:39:12;;;;;;;0.30;0.30;;;29.70;60.60;;;;;;5036468;28;21038;-70
2022/05/23 07:41:39;;;;;;;0.40;0.40;;;28.80;61.00;;;;;;5035192;28;20406;-68
2022/05/23 07:44:06;;;;;;;0.40;0.40;;;27.90;66.20;;;;;;5036196;28;20436;-68
2022/05/23 07:46:34;;;;;;;0.30;0.30;;;27.30;66.70;;;;;;5035702;28;20440;-69
2022/05/23 07:49:00;;;;;;;0.70;0.70;;;26.60;67.20;;;;;;5035539;28;20431;-70
2022/05/23 07:51:29;;;;;;;0.30;0.30;;;25.60;69.50;;;;;;5036236;28;20435;-68
2022/05/23 08:02:10;;;;;;;0.30;0.30;;;24.20;85.70;;;;;;5035838;28;20932;-70
2022/05/23 08:04:36;;;;;;;2.10;2.00;;;24.60;86.90;;;;;;5036093;28;20384;-70
2022/05/23 08:07:02;;;;;;;0.30;0.30;;;24.80;90.10;;;;;;5035206;28;20376;-70
2022/05/23 08:09:28;;;;;;;1.17;0.67;;;25.30;89.80;;;;;;5035988;28;20796;-69
2022/05/23 08:11:54;;;;;;;0.30;0.30;;;26.90;82.30;;;;;;5036100;28;20410;-72
2022/05/23 08:14:20;;;;;;;0.87;0.87;;;28.20;76.30;;;;;;5035592;28;20171;-70
2022/05/23 08:16:46;;;;;;;0.40;0.40;;;29.30;69.80;;;;;;5035891;28;20405;-70
2022/05/23 08:19:12;;;;;;;0.30;0.30;;;30.00;66.70;;;;;;5035614;28;20502;-71
2022/05/23 08:21:45;;;;;;;0.70;0.70;;;29.80;63.30;;;;;;5035699;28;20413;-70
2022/05/23 08:24:10;;;;;;;0.30;0.30;;;28.90;66.90;;;;;;5035582;28;20172;-70
2022/05/23 08:26:36;;;;;;;0.30;0.30;;;28.00;68.60;;;;;;5035645;28;20773;-69
2022/05/23 08:29:02;;;;;;;0.50;0.50;;;26.90;74.40;;;;;;5035414;28;20190;-71
2022/05/23 08:31:28;;;;;;;0.50;0.50;;;25.80;79.50;;;;;;5035518;28;20692;-70
2022/05/23 08:33:53;;;;;;;0.30;0.30;;;24.70;85.20;;;;;;5035248;28;20421;-71
2022/05/23 08:36:19;;;;;;;0.30;0.30;;;23.80;90.10;;;;;;5034152;28;20180;-70
2022/05/23 08:38:44;;;;;;;0.30;0.30;;;23.20;91.80;;;;;;5035280;28;20282;-71
2022/05/23 08:41:18;;;;;;;0.50;0.50;;;22.80;93.60;;;;;;5035506;28;20729;-70
2022/05/23 08:44:10;;;;;;;0.30;0.30;;;22.40;95.20;;;;;;5035365;28;20167;-70
2022/05/23 08:46:50;;;;;;;0.30;0.30;;;21.90;95.90;;;;;;5035479;28;20399;-70
2022/05/23 08:49:28;;;;;;;0.50;0.50;;;21.30;97.70;;;;;;5035183;28;20435;-69
2022/05/23 08:52:14;;;;;;;0.30;0.30;;;20.90;99.30;;;;;;5035262;28;20406;-70
2022/05/23 08:54:49;;;;;;;1.17;1.07;;;20.60;99.90;;;;;;5035117;28;20409;-69
2022/05/23 08:57:25;;;;;;;0.30;0.30;;;20.40;99.90;;;;;;5035605;28;20398;-70
2022/05/23 08:59:54;;;;;;;0.73;0.73;;;20.20;99.90;;;;;;5034879;28;20830;-69
2022/05/23 09:02:35;;;;;;;0.30;0.30;;;20.00;99.90;;;;;;5034942;28;20423;-69
2022/05/23 09:05:28;;;;;;;0.30;0.30;;;19.70;99.90;;;;;;5034874;28;20424;-70
2022/05/23 09:07:58;;;;;;;0.30;0.30;;;19.40;99.90;;;;;;5034840;28;20414;-70
2022/05/23 09:10:35;;;;;;;0.30;0.30;;;19.00;99.90;;;;;;5034715;28;20948;-69
2022/05/23 09:13:04;;;;;;;1.23;0.73;;;18.60;99.90;;;;;;5034704;28;20408;-70
2022/05/23 09:15:32;;;;;;;0.50;0.50;;;18.60;99.90;;;;;;5034780;28;20472;-70
2022/05/23 09:18:06;;;;;;;0.30;0.30;;;18.30;99.90;;;;;;5033511;28;20410;-68
2022/05/23 09:20:44;;;;;;;0.87;0.60;;;18.30;99.90;;;;;;5034537;28;20444;-70
2022/05/23 09:23:18;;;;;;;0.30;0.30;;;18.30;99.90;;;;;;5033111;28;20409;-70
2022/05/23 09:25:44;;;;;;;0.30;0.30;;;18.30;99.90;;;;;;5034720;28;20414;-71
2022/05/23 09:28:37;;;;;;;1.03;1.03;;;18.40;99.90;;;;;;5034360;28;20749;-71
2022/05/23 09:31:37;;;;;;;0.30;0.30;;;18.40;99.90;;;;;;5034397;28;20628;-70
2022/05/23 09:34:04;;;;;;;0.30;0.30;;;18.50;99.90;;;;;;5033144;28;20425;-69
2022/05/23 09:36:36;;;;;;;0.30;0.30;;;18.40;99.90;;;;;;5034417;28;20502;-69
2022/05/23 09:39:11;;;;;;;0.30;0.30;;;18.30;99.90;;;;;;5034471;28;20461;-69
2022/05/23 09:47:45;;;;;;;0.30;0.30;;;17.70;99.90;;;;;;5034096;28;20527;-71
2022/05/23 09:50:34;;;;;;;0.30;0.30;;;17.10;99.90;;;;;;5034003;28;20951;-69
2022/05/23 09:53:01;;;;;;;0.67;0.67;;;16.60;99.90;;;;;;5033945;28;20757;-69
2022/05/23 09:55:33;;;;;;;3.70;0.80;;;16.50;99.90;;;;;;5034162;28;20444;-70
2022/05/23 09:58:00;;;;;;;0.30;0.30;;;16.40;99.90;;;;;;5033844;28;20455;-71
2022/05/23 10:00:32;;;;;;;0.30;0.30;;;16.30;99.90;;;;;;5032531;28;20444;-70
2022/05/23 10:03:01;;;;;;;0.30;0.30;;;16.20;99.90;;;;;;5033809;28;20879;-70
2022/05/23 10:05:37;;;;;;;0.30;0.30;;;16.10;99.90;;;;;;5033894;28;20409;-71
2022/05/23 10:08:13;;;;;;;0.30;0.30;;;16.00;99.90;;;;;;5033758;28;20844;-69
2022/05/23 10:10:53;;;;;;;0.30;0.30;;;15.90;99.90;;;;;;5033574;28;20432;-70
2022/05/23 10:13:24;;;;;;;0.30;0.30;;;16.00;99.90;;;;;;5033468;28;20909;-69
2022/05/23 10:16:09;;;;;;;0.40;0.40;;;15.90;99.90;;;;;;5033794;28;20782;-69
2022/05/23 10:18:44;;;;;;;0.30;0.30;;;15.90;99.90;;;;;;5033461;28;20457;-69
2022/05/23 10:24:32;;;;;;;0.30;0.30;;;15.60;99.90;;;;;;5033918;28;20372;-70
2022/05/23 10:27:06;;;;;;;0.30;0.30;;;15.50;99.90;;;;;;5033510;28;20412;-70
2022/05/23 10:29:53;;;;;;;1.03;1.03;;;15.60;99.90;;;;;;5033312;28;20484;-69
2022/05/23 10:32:35;;;;;;;0.30;0.30;;;15.70;99.90;;;;;;5033377;28;20403;-69
2022/05/23 10:35:43;;;;;;;0.30;0.30;;;15.80;99.90;;;;;;5032180;28;20926;-69
2022/05/23 10:44:07;;;;;;;0.30;0.30;;;16.30;99.90;;;;;;5033209;28;20404;-71
2022/05/23 10:46:36;;;;;;;0.30;0.30;;;16.50;99.90;;;;;;5033404;28;20405;-71
2022/05/23 10:49:07;;;;;;;0.30;0.30;;;16.70;99.90;;;;;;5033377;28;20433;-71
2022/05/23 10:51:47;;;;;;;0.30;0.30;;;17.00;99.90;;;;;;5033477;28;20751;-71
2022/05/23 10:54:19;;;;;;;1.27;1.27;;;17.30;99.90;;;;;;5033103;28;20511;-71
2022/05/23 10:57:18;;;;;;;0.60;0.60;;;17.80;99.90;;;;;;5033262;28;20413;-69
2022/05/23 11:00:00;;;;;;;0.30;0.30;;;18.30;99.90;;;;;;5033127;28;20492;-72
2022/05/23 11:02:48;;;;;;;0.30;0.30;;;18.80;99.90;;;;;;5033142;28;20444;-71
2022/05/23 11:05:23;;;;;;;0.30;0.30;;;19.40;99.90;;;;;;5033223;28;20404;-71
2022/05/23 11:08:05;;;;;;;0.30;0.30;;;20.00;99.90;;;;;;5033285;28;20500;-70
2022/05/23 11:10:52;;;;;;;0.30;0.30;;;20.50;99.90;;;;;;5031746;28;20525;-71
2022/05/23 11:13:36;;;;;;;0.40;0.40;;;20.90;99.90;;;;;;5032975;28;20412;-72
2022/05/23 11:16:31;;;;;;;0.30;0.30;;;21.40;99.90;;;;;;5033236;28;20402;-72
2022/05/23 11:19:12;;;;;;;0.40;0.40;;;21.90;98.50;;;;;;5032740;28;20850;-71
2022/05/23 11:22:03;;;;;;;0.30;0.30;;;22.20;99.60;;;;;;5033078;28;20409;-69
2022/05/23 11:24:41;;;;;;;0.30;0.30;;;22.30;96.70;;;;;;5031601;28;20420;-70
2022/05/23 11:35:48;;;;;;;0.30;0.30;;;23.10;97.00;;;;;;5033188;28;20491;-70
2022/05/23 11:38:19;;;;;;;0.30;0.30;;;23.20;96.20;;;;;;5032979;28;20415;-71
2022/05/23 11:41:01;;;;;;;0.30;0.30;;;23.30;97.30;;;;;;5033804;28;20797;-69
2022/05/23 11:43:27;;;;;;;0.30;0.30;;;23.20;98.40;;;;;;5036256;28;20502;-71
2022/05/23 11:45:57;;;;;;;0.73;0.73;;;23.20;98.20;;;;;;5036318;28;20408;-70
2022/05/23 11:48:33;;;;;;;0.40;0.40;;;23.30;99.90;;;;;;5036331;28;20416;-70
2022/05/23 11:51:23;;;;;;;0.30;0.30;;;23.20;99.40;;;;;;5036321;28;20423;-70
2022/05/23 11:54:00;;;;;;;0.60;0.60;;;23.10;98.30;;;;;;5035995;28;20404;-71
2022/05/23 11:56:45;;;;;;;0.30;0.30;;;23.10;99.90;;;;;;5036179;28;20420;-69
2022/05/23 11:59:25;;;;;;;0.30;0.30;;;23.20;98.60;;;;;;5036171;28;20602;-70
2022/05/23 12:02:12;;;;;;;0.30;0.30;;;23.30;98.00;;;;;;5035980;28;20452;-70
2022/05/23 12:04:44;;;;;;;0.40;0.40;;;23.40;97.30;;;;;;5036221;28;20404;-71
2022/05/23 12:07:41;;;;;;;0.30;0.30;;;23.50;96.70;;;;;;5036025;28;20770;-70
2022/05/23 12:10:30;;;;;;;0.30;0.30;;;23.50;96.70;;;;;;5035741;28;20444;-71
2022/05/23 12:12:58;;;;;;;0.30;0.30;;;23.20;97.60;;;;;;5035854;28;20416;-69
2022/05/23 12:15:48;;;;;;;0.30;0.30;;;22.90;98.60;;;;;;5035829;28;20409;-70
2022/05/23 12:18:22;;;;;;;0.40;0.40;;;22.50;99.90;;;;;;5035716;28;20470;-72
2022/05/23 12:20:55;;;;;;;0.30;0.30;;;22.20;99.90;;;;;;5035376;28;20446;-72
2022/05/23 12:23:36;;;;;;;0.30;0.30;;;22.10;99.90;;;;;;5035519;28;20490;-69
2022/05/23 12:26:24;;;;;;;0.30;0.30;;;22.10;99.90;;;;;;5035702;28;20441;-71
2022/05/23 12:28:55;;;;;;;1.33;1.33;;;21.90;99.90;;;;;;5035443;28;20413;-70
2022/05/23 12:31:23;;;;;;;0.30;0.30;;;21.70;99.90;;;;;;5035430;28;20466;-71
2022/05/23 12:34:12;;;;;;;0.30;0.30;;;21.60;99.90;;;;;;5035336;28;20414;-70
2022/05/23 12:36:49;;;;;;;0.40;0.40;;;21.50;99.90;;;;;;5035772;28;20425;-71
2022/05/23 12:39:24;;;;;;;0.30;0.30;;;21.30;99.90;;;;;;5034142;28;20469;-70
2022/05/23 12:42:15;;;;;;;0.40;0.40;;;21.00;99.90;;;;;;5035202;28;20405;-71
2022/05/23 12:45:08;;;;;;;0.30;0.30;;;20.60;99.90;;;;;;5035346;28;20857;-72
2022/05/23 12:47:37;;;;;;;0.30;0.30;;;20.40;99.90;;;;;;5035210;28;20860;-71
2022/05/23 12:50:33;;;;;;;0.30;0.30;;;20.40;99.90;;;;;;5035049;28;20436;-70
2022/05/23 12:53:14;;;;;;;0.30;0.30;;;20.80;99.90;;;;;;5034722;28;20907;-70
2022/05/23 12:55:58;;;;;;;0.30;0.30;;;21.00;99.90;;;;;;5033890;28;20406;-71
2022/05/23 12:58:25;;;;;;;0.30;0.30;;;21.40;99.90;;;;;;5035005;28;20444;-71
2022/05/23 13:01:04;;;;;;;0.30;0.30;;;22.00;99.90;;;;;;5034835;28;20430;-71
2022/05/23 13:03:30;;;;;;;0.30;0.30;;;22.30;99.90;;;;;;5034762;28;20476;-71
2022/05/23 13:06:25;;;;;;;0.30;0.30;;;22.60;99.90;;;;;;5035040;28;20492;-69
2022/05/23 13:09:00;;;;;;;0.30;0.30;;;22.80;99.90;;;;;;5033594;28;20668;-69
2022/05/23 13:11:33;;;;;;;0.93;0.93;;;22.80;99.90;;;;;;5034861;28;20409;-70
2022/05/23 13:13:58;;;;;;;0.30;0.30;;;22.70;99.90;;;;;;5034688;28;20411;-71
2022/05/23 13:16:27;;;;;;;0.40;0.40;;;22.60;99.60;;;;;;5034831;28;20405;-71
2022/05/23 13:27:12;;;;;;;0.30;0.30;;;22.30;97.20;;;;;;5034882;28;20422;-71
2022/05/23 13:29:38;;;;;;;0.30;0.30;;;22.00;96.60;;;;;;5034295;28;20440;-70
2022/05/23 13:32:10;;;;;;;0.30;0.30;;;21.60;99.90;;;;;;5034116;28;20428;-69
2022/05/23 13:34:38;;;;;;;0.30;0.30;;;21.40;99.90;;;;;;5034438;28;20406;-70
2022/05/23 13:37:06;;;;;;;0.30;0.30;;;21.10;99.50;;;;;;5034316;28;20403;-71
2022/05/23 13:39:32;;;;;;;0.30;0.30;;;21.00;99.90;;;;;;5034222;28;21028;-69
2022/05/23 13:42:03;;;;;;;0.30;0.30;;;20.60;99.90;;;;;;5034077;28;20435;-70
2022/05/23 13:44:35;;;;;;;0.30;0.30;;;20.30;99.90;;;;;;5034249;28;20772;-70
2022/05/23 13:47:08;;;;;;;0.30;0.30;;;20.00;99.90;;;;;;5034332;28;20757;-71
2022/05/23 13:49:48;;;;;;;0.30;0.30;;;19.70;99.90;;;;;;5034127;28;20878;-70
2022/05/23 13:52:21;;;;;;;0.30;0.30;;;19.50;99.90;;;;;;5033925;28;20396;-71
2022/05/23 13:54:54;;;;;;;0.37;0.30;;;19.40;99.90;;;;;;5034152;28;20497;-71
2022/05/23 13:57:31;;;;;;;0.30;0.30;;;19.20;99.90;;;;;;5034138;28;20461;-70
2022/05/23 13:59:59;;;;;;;0.50;0.50;;;19.10;99.90;;;;;;5033868;28;20458;-71
2022/05/23 14:02:31;;;;;;;0.30;0.30;;;18.90;99.90;;;;;;5033726;28;20422;-70
2022/05/23 14:04:58;;;;;;;1.03;1.03;;;18.80;99.90;;;;;;5033415;28;20411;-70
2022/05/23 14:07:27;;;;;;;0.30;0.30;;;18.60;99.90;;;;;;5034152;28;20492;-70
2022/05/23 14:09:57;;;;;;;1.03;1.00;;;18.50;99.90;;;;;;5033573;28;20483;-70
2022/05/23 14:12:31;;;;;;;0.60;0.60;;;18.40;99.90;;;;;;5033687;28;20540;-70
2022/05/23 14:15:04;;;;;;;0.30;0.30;;;18.30;99.90;;;;;;5033878;28;20433;-70